sensor_id;sensor_type;location;lat;lon;timestamp;temperature;humidity
23081;DHT22;11708;50.570;8.532;2023-04-01T00:02:19;9.90;99.90
23081;DHT22;11708;50.570;8.532;2023-04-01T00:04:44;9.90;99.90
23081;DHT22;11708;50.570;8.532;2023-04-01T00:07:11;9.90;99.90
23081;DHT22;11708;50.570;8.532;2023-04-01T00:09:36;9.90;99.90
23081;DHT22;11708;50.570;8.532;2023-04-01T00:12:03;9.90;99.90
23081;DHT22;11708;50.570;8.532;2023-04-01T00:14:28;9.90;99.90
23081;DHT22;11708;50.570;8.532;2023-04-01T00:16:55;9.90;99.90
23081;DHT22;11708;50.570;8.532;2023-04-01T00:19:20;9.90;99.90
23081;DHT22;11708;50.570;8.532;2023-04-01T00:21:46;9.90;99.90
23081;DHT22;11708;50.570;8.532;2023-04-01T00:24:11;10.00;99.90
23081;DHT22;11708;50.570;8.532;2023-04-01T00:26:37;9.80;99.90
23081;DHT22;11708;50.570;8.532;2023-04-01T00:29:02;9.90;99.90
23081;DHT22;11708;50.570;8.532;2023-04-01T00:31:28;9.90;99.90
23081;DHT22;11708;50.570;8.532;2023-04-01T00:33:54;9.90;99.90
23081;DHT22;11708;50.570;8.532;2023-04-01T00:36:21;9.90;99.90
23081;DHT22;11708;50.570;8.532;2023-04-01T00:38:47;9.90;99.90
23081;DHT22;11708;50.570;8.532;2023-04-01T00:41:14;9.90;99.90
23081;DHT22;11708;50.570;8.532;2023-04-01T00:43:45;9.90;99.90
23081;DHT22;11708;50.570;8.532;2023-04-01T00:46:11;9.90;99.90
23081;DHT22;11708;50.570;8.532;2023-04-01T00:48:41;9.90;99.90
23081;DHT22;11708;50.570;8.532;2023-04-01T00:51:15;10.00;99.90
23081;DHT22;11708;50.570;8.532;2023-04-01T00:53:48;10.00;99.90
23081;DHT22;11708;50.570;8.532;2023-04-01T00:56:27;10.00;99.90
23081;DHT22;11708;50.570;8.532;2023-04-01T00:58:59;10.00;99.90
23081;DHT22;11708;50.570;8.532;2023-04-01T01:01:26;10.00;99.90
23081;DHT22;11708;50.570;8.532;2023-04-01T01:03:53;9.90;99.90
23081;DHT22;11708;50.570;8.532;2023-04-01T01:11:41;9.90;99.90
23081;DHT22;11708;50.570;8.532;2023-04-01T01:14:49;9.80;99.90
23081;DHT22;11708;50.570;8.532;2023-04-01T01:17:23;9.80;99.90
23081;DHT22;11708;50.570;8.532;2023-04-01T01:20:03;9.80;99.90
23081;DHT22;11708;50.570;8.532;2023-04-01T01:31:22;9.80;99.90
23081;DHT22;11708;50.570;8.532;2023-04-01T01:36:34;9.80;99.90
23081;DHT22;11708;50.570;8.532;2023-04-01T01:39:05;9.70;99.90
23081;DHT22;11708;50.570;8.532;2023-04-01T01:41:32;9.70;99.90
23081;DHT22;11708;50.570;8.532;2023-04-01T01:44:01;9.60;99.90
23081;DHT22;11708;50.570;8.532;2023-04-01T01:46:29;9.70;99.90
23081;DHT22;11708;50.570;8.532;2023-04-01T01:48:57;9.40;99.90
23081;DHT22;11708;50.570;8.532;2023-04-01T01:51:24;9.70;99.90
23081;DHT22;11708;50.570;8.532;2023-04-01T01:53:51;9.70;99.90
23081;DHT22;11708;50.570;8.532;2023-04-01T01:56:19;9.60;99.90
23081;DHT22;11708;50.570;8.532;2023-04-01T01:58:52;9.60;99.90
23081;DHT22;11708;50.570;8.532;2023-04-01T02:01:24;9.60;99.90
23081;DHT22;11708;50.570;8.532;2023-04-01T02:03:52;9.60;99.90
23081;DHT22;11708;50.570;8.532;2023-04-01T02:06:21;9.60;99.90
23081;DHT22;11708;50.570;8.532;2023-04-01T02:08:57;9.60;99.90
23081;DHT22;11708;50.570;8.532;2023-04-01T02:11:28;9.70;99.90
23081;DHT22;11708;50.570;8.532;2023-04-01T02:14:10;9.60;99.90
23081;DHT22;11708;50.570;8.532;2023-04-01T02:19:09;9.60;99.90
23081;DHT22;11708;50.570;8.532;2023-04-01T02:21:37;9.60;99.90
23081;DHT22;11708;50.570;8.532;2023-04-01T02:24:06;9.60;99.90
23081;DHT22;11708;50.570;8.532;2023-04-01T02:28:59;9.60;99.90
23081;DHT22;11708;50.570;8.532;2023-04-01T02:31:26;9.60;99.90
23081;DHT22;11708;50.570;8.532;2023-04-01T02:33:52;9.60;99.90
23081;DHT22;11708;50.570;8.532;2023-04-01T02:36:18;9.60;99.90
23081;DHT22;11708;50.570;8.532;2023-04-01T02:38:45;9.60;99.90
23081;DHT22;11708;50.570;8.532;2023-04-01T02:41:12;9.60;99.90
23081;DHT22;11708;50.570;8.532;2023-04-01T02:43:37;9.50;99.90
23081;DHT22;11708;50.570;8.532;2023-04-01T02:46:03;9.60;99.90
23081;DHT22;11708;50.570;8.532;2023-04-01T02:48:29;9.60;99.90
23081;DHT22;11708;50.570;8.532;2023-04-01T02:50:55;9.60;99.90
23081;DHT22;11708;50.570;8.532;2023-04-01T02:53:21;9.60;99.90
23081;DHT22;11708;50.570;8.532;2023-04-01T02:55:47;9.60;99.90
23081;DHT22;11708;50.570;8.532;2023-04-01T02:58:16;9.60;99.90
23081;DHT22;11708;50.570;8.532;2023-04-01T03:00:41;9.60;99.90
23081;DHT22;11708;50.570;8.532;2023-04-01T03:03:08;9.60;99.90
23081;DHT22;11708;50.570;8.532;2023-04-01T03:05:33;9.60;99.90
23081;DHT22;11708;50.570;8.532;2023-04-01T03:07:59;9.60;99.90
23081;DHT22;11708;50.570;8.532;2023-04-01T03:10:24;9.60;99.90
23081;DHT22;11708;50.570;8.532;2023-04-01T03:12:50;9.50;99.90
23081;DHT22;11708;50.570;8.532;2023-04-01T03:15:16;9.60;99.90
23081;DHT22;11708;50.570;8.532;2023-04-01T03:17:42;9.50;99.90
23081;DHT22;11708;50.570;8.532;2023-04-01T03:20:09;9.50;99.90
23081;DHT22;11708;50.570;8.532;2023-04-01T03:22:37;9.50;99.90
23081;DHT22;11708;50.570;8.532;2023-04-01T03:25:04;9.50;99.90
23081;DHT22;11708;50.570;8.532;2023-04-01T03:27:30;9.50;99.90
23081;DHT22;11708;50.570;8.532;2023-04-01T03:29:55;9.50;99.90
23081;DHT22;11708;50.570;8.532;2023-04-01T03:32:21;9.50;99.90
23081;DHT22;11708;50.570;8.532;2023-04-01T03:34:46;9.40;99.90
23081;DHT22;11708;50.570;8.532;2023-04-01T03:37:12;9.40;99.90
23081;DHT22;11708;50.570;8.532;2023-04-01T03:39:38;9.50;99.90
23081;DHT22;11708;50.570;8.532;2023-04-01T03:42:03;9.40;99.90
23081;DHT22;11708;50.570;8.532;2023-04-01T03:44:33;9.50;99.90
23081;DHT22;11708;50.570;8.532;2023-04-01T03:46:59;9.50;99.90
23081;DHT22;11708;50.570;8.532;2023-04-01T03:49:25;9.50;99.90
23081;DHT22;11708;50.570;8.532;2023-04-01T03:51:51;9.40;99.90
23081;DHT22;11708;50.570;8.532;2023-04-01T03:54:17;9.50;99.90
23081;DHT22;11708;50.570;8.532;2023-04-01T03:56:43;9.30;99.90
23081;DHT22;11708;50.570;8.532;2023-04-01T03:59:08;9.80;99.90
23081;DHT22;11708;50.570;8.532;2023-04-01T04:01:34;9.40;99.90
23081;DHT22;11708;50.570;8.532;2023-04-01T04:04:00;9.50;99.90
23081;DHT22;11708;50.570;8.532;2023-04-01T04:06:27;9.50;99.90
23081;DHT22;11708;50.570;8.532;2023-04-01T04:08:53;9.50;99.90
23081;DHT22;11708;50.570;8.532;2023-04-01T04:11:20;9.50;99.90
23081;DHT22;11708;50.570;8.532;2023-04-01T04:13:46;9.50;99.90
23081;DHT22;11708;50.570;8.532;2023-04-01T04:16:15;9.40;99.90
23081;DHT22;11708;50.570;8.532;2023-04-01T04:18:41;9.50;99.90
23081;DHT22;11708;50.570;8.532;2023-04-01T04:21:10;9.50;99.90
23081;DHT22;11708;50.570;8.532;2023-04-01T04:23:36;9.40;99.90
23081;DHT22;11708;50.570;8.532;2023-04-01T04:26:07;9.40;99.90
23081;DHT22;11708;50.570;8.532;2023-04-01T04:28:34;9.40;99.90
23081;DHT22;11708;50.570;8.532;2023-04-01T04:31:00;9.40;99.90
23081;DHT22;11708;50.570;8.532;2023-04-01T04:33:26;9.40;99.90
23081;DHT22;11708;50.570;8.532;2023-04-01T04:35:54;9.30;99.90
23081;DHT22;11708;50.570;8.532;2023-04-01T04:38:20;9.30;99.90
23081;DHT22;11708;50.570;8.532;2023-04-01T04:40:46;9.30;99.90
23081;DHT22;11708;50.570;8.532;2023-04-01T04:43:13;9.30;99.90
23081;DHT22;11708;50.570;8.532;2023-04-01T04:45:40;9.30;99.90
23081;DHT22;11708;50.570;8.532;2023-04-01T04:48:08;9.30;99.90
23081;DHT22;11708;50.570;8.532;2023-04-01T04:50:34;9.30;99.90
23081;DHT22;11708;50.570;8.532;2023-04-01T04:52:59;9.20;99.90
23081;DHT22;11708;50.570;8.532;2023-04-01T04:55:25;9.30;99.90
23081;DHT22;11708;50.570;8.532;2023-04-01T04:57:51;9.20;99.90
23081;DHT22;11708;50.570;8.532;2023-04-01T05:00:16;9.20;99.90
23081;DHT22;11708;50.570;8.532;2023-04-01T05:02:42;9.10;99.90
23081;DHT22;11708;50.570;8.532;2023-04-01T05:05:08;9.10;99.90
23081;DHT22;11708;50.570;8.532;2023-04-01T05:07:34;9.10;99.90
23081;DHT22;11708;50.570;8.532;2023-04-01T05:09:59;9.10;99.90
23081;DHT22;11708;50.570;8.532;2023-04-01T05:12:25;9.10;99.90
23081;DHT22;11708;50.570;8.532;2023-04-01T05:14:51;9.10;99.90
23081;DHT22;11708;50.570;8.532;2023-04-01T05:17:16;9.10;99.90
23081;DHT22;11708;50.570;8.532;2023-04-01T05:19:42;9.10;99.90
23081;DHT22;11708;50.570;8.532;2023-04-01T05:22:08;9.10;99.90
23081;DHT22;11708;50.570;8.532;2023-04-01T05:24:33;9.00;99.90
23081;DHT22;11708;50.570;8.532;2023-04-01T05:27:00;9.00;99.90
23081;DHT22;11708;50.570;8.532;2023-04-01T05:29:26;9.00;99.90
23081;DHT22;11708;50.570;8.532;2023-04-01T05:31:52;9.00;99.90
23081;DHT22;11708;50.570;8.532;2023-04-01T05:34:18;9.00;99.90
23081;DHT22;11708;50.570;8.532;2023-04-01T05:36:43;9.10;99.90
23081;DHT22;11708;50.570;8.532;2023-04-01T05:39:09;9.20;99.90
23081;DHT22;11708;50.570;8.532;2023-04-01T05:41:37;9.00;99.90
23081;DHT22;11708;50.570;8.532;2023-04-01T05:44:04;9.00;99.90
23081;DHT22;11708;50.570;8.532;2023-04-01T05:46:30;9.00;99.90
23081;DHT22;11708;50.570;8.532;2023-04-01T05:48:56;9.30;99.90
23081;DHT22;11708;50.570;8.532;2023-04-01T05:51:21;9.00;99.90
23081;DHT22;11708;50.570;8.532;2023-04-01T05:53:47;9.00;99.90
23081;DHT22;11708;50.570;8.532;2023-04-01T05:56:13;9.00;99.90
23081;DHT22;11708;50.570;8.532;2023-04-01T05:58:39;9.00;99.90
23081;DHT22;11708;50.570;8.532;2023-04-01T06:01:07;9.00;99.90
23081;DHT22;11708;50.570;8.532;2023-04-01T06:03:33;9.00;99.90
23081;DHT22;11708;50.570;8.532;2023-04-01T06:05:58;9.00;99.90
23081;DHT22;11708;50.570;8.532;2023-04-01T06:08:27;9.00;99.90
23081;DHT22;11708;50.570;8.532;2023-04-01T06:24:53;9.00;99.90
23081;DHT22;11708;50.570;8.532;2023-04-01T06:30:29;9.10;99.90
23081;DHT22;11708;50.570;8.532;2023-04-01T06:35:24;9.10;99.90
23081;DHT22;11708;50.570;8.532;2023-04-01T06:46:24;9.20;99.90
23081;DHT22;11708;50.570;8.532;2023-04-01T06:54:58;9.30;99.90
23081;DHT22;11708;50.570;8.532;2023-04-01T06:57:42;9.30;99.90
23081;DHT22;11708;50.570;8.532;2023-04-01T07:03:13;9.30;99.90
23081;DHT22;11708;50.570;8.532;2023-04-01T07:05:42;9.40;99.90
23081;DHT22;11708;50.570;8.532;2023-04-01T07:08:16;9.40;99.90
23081;DHT22;11708;50.570;8.532;2023-04-01T07:11:03;9.40;99.90
23081;DHT22;11708;50.570;8.532;2023-04-01T07:13:39;9.50;99.90
23081;DHT22;11708;50.570;8.532;2023-04-01T07:16:16;9.60;99.90
23081;DHT22;11708;50.570;8.532;2023-04-01T07:18:54;9.60;99.90
23081;DHT22;11708;50.570;8.532;2023-04-01T07:21:35;9.60;99.90
23081;DHT22;11708;50.570;8.532;2023-04-01T07:24:06;9.60;99.90
23081;DHT22;11708;50.570;8.532;2023-04-01T07:26:34;10.00;99.90
23081;DHT22;11708;50.570;8.532;2023-04-01T07:29:00;9.60;99.90
23081;DHT22;11708;50.570;8.532;2023-04-01T07:34:12;9.70;99.90
23081;DHT22;11708;50.570;8.532;2023-04-01T07:37:02;9.70;99.90
23081;DHT22;11708;50.570;8.532;2023-04-01T07:39:41;9.80;99.90
23081;DHT22;11708;50.570;8.532;2023-04-01T07:53:23;10.00;99.90
23081;DHT22;11708;50.570;8.532;2023-04-01T07:55:51;10.10;99.90
23081;DHT22;11708;50.570;8.532;2023-04-01T07:58:43;10.00;99.90
23081;DHT22;11708;50.570;8.532;2023-04-01T08:01:20;10.10;99.90
23081;DHT22;11708;50.570;8.532;2023-04-01T08:09:40;10.20;99.90
23081;DHT22;11708;50.570;8.532;2023-04-01T08:12:18;10.20;99.90
23081;DHT22;11708;50.570;8.532;2023-04-01T08:22:41;10.20;99.90
23081;DHT22;11708;50.570;8.532;2023-04-01T08:25:13;10.20;99.90
23081;DHT22;11708;50.570;8.532;2023-04-01T08:27:44;10.20;99.90
23081;DHT22;11708;50.570;8.532;2023-04-01T08:35:56;10.30;99.90
23081;DHT22;11708;50.570;8.532;2023-04-01T08:38:46;10.10;99.90
23081;DHT22;11708;50.570;8.532;2023-04-01T08:52:29;10.40;99.90
23081;DHT22;11708;50.570;8.532;2023-04-01T08:55:22;10.50;99.90
23081;DHT22;11708;50.570;8.532;2023-04-01T09:00:48;10.60;99.90
23081;DHT22;11708;50.570;8.532;2023-04-01T09:03:44;10.60;99.90
23081;DHT22;11708;50.570;8.532;2023-04-01T09:06:29;10.80;99.90
23081;DHT22;11708;50.570;8.532;2023-04-01T09:09:22;10.80;99.90
23081;DHT22;11708;50.570;8.532;2023-04-01T09:14:47;10.90;99.90
23081;DHT22;11708;50.570;8.532;2023-04-01T09:20:56;11.00;99.90
23081;DHT22;11708;50.570;8.532;2023-04-01T09:31:20;10.90;99.90
23081;DHT22;11708;50.570;8.532;2023-04-01T09:34:03;10.90;99.90
23081;DHT22;11708;50.570;8.532;2023-04-01T09:36:44;10.90;99.90
23081;DHT22;11708;50.570;8.532;2023-04-01T09:42:16;10.90;99.90
23081;DHT22;11708;50.570;8.532;2023-04-01T09:45:16;10.90;99.90
23081;DHT22;11708;50.570;8.532;2023-04-01T09:48:01;10.90;99.90
23081;DHT22;11708;50.570;8.532;2023-04-01T09:51:21;10.90;99.90
23081;DHT22;11708;50.570;8.532;2023-04-01T09:53:48;11.00;99.90
23081;DHT22;11708;50.570;8.532;2023-04-01T09:56:42;11.00;99.90
23081;DHT22;11708;50.570;8.532;2023-04-01T10:05:35;11.00;99.90
23081;DHT22;11708;50.570;8.532;2023-04-01T10:22:04;11.00;99.90
23081;DHT22;11708;50.570;8.532;2023-04-01T10:25:10;11.00;99.90
23081;DHT22;11708;50.570;8.532;2023-04-01T10:33:19;11.10;99.90
23081;DHT22;11708;50.570;8.532;2023-04-01T10:38:41;11.00;99.90
23081;DHT22;11708;50.570;8.532;2023-04-01T10:58:51;11.20;99.90
23081;DHT22;11708;50.570;8.532;2023-04-01T11:04:47;11.30;99.90
23081;DHT22;11708;50.570;8.532;2023-04-01T11:30:12;11.40;99.90
23081;DHT22;11708;50.570;8.532;2023-04-01T11:33:08;11.50;99.90
23081;DHT22;11708;50.570;8.532;2023-04-01T11:38:36;11.40;99.90
23081;DHT22;11708;50.570;8.532;2023-04-01T11:44:20;11.30;99.90
23081;DHT22;11708;50.570;8.532;2023-04-01T11:56:09;11.10;99.90
23081;DHT22;11708;50.570;8.532;2023-04-01T12:12:52;11.00;99.90
23081;DHT22;11708;50.570;8.532;2023-04-01T12:15:42;11.00;99.90
23081;DHT22;11708;50.570;8.532;2023-04-01T12:21:23;11.00;99.90
23081;DHT22;11708;50.570;8.532;2023-04-01T12:27:08;11.20;99.90
23081;DHT22;11708;50.570;8.532;2023-04-01T12:35:30;11.30;99.90
23081;DHT22;11708;50.570;8.532;2023-04-01T12:41:21;11.40;99.90
23081;DHT22;11708;50.570;8.532;2023-04-01T12:49:24;11.60;99.90
23081;DHT22;11708;50.570;8.532;2023-04-01T13:16:28;11.70;99.90
23081;DHT22;11708;50.570;8.532;2023-04-01T13:19:08;11.80;99.90
23081;DHT22;11708;50.570;8.532;2023-04-01T13:24:27;12.00;99.90
23081;DHT22;11708;50.570;8.532;2023-04-01T13:27:00;12.10;99.90
23081;DHT22;11708;50.570;8.532;2023-04-01T13:29:47;12.30;99.90
23081;DHT22;11708;50.570;8.532;2023-04-01T13:38:16;12.30;99.90
23081;DHT22;11708;50.570;8.532;2023-04-01T13:40:53;12.30;99.90
23081;DHT22;11708;50.570;8.532;2023-04-01T13:43:28;12.40;99.90
23081;DHT22;11708;50.570;8.532;2023-04-01T14:00:27;12.60;99.90
23081;DHT22;11708;50.570;8.532;2023-04-01T14:03:13;12.60;99.90
23081;DHT22;11708;50.570;8.532;2023-04-01T14:13:56;12.60;99.90
23081;DHT22;11708;50.570;8.532;2023-04-01T14:19:30;12.50;99.90
23081;DHT22;11708;50.570;8.532;2023-04-01T14:22:25;12.60;99.90
23081;DHT22;11708;50.570;8.532;2023-04-01T14:25:32;12.60;99.90
23081;DHT22;11708;50.570;8.532;2023-04-01T14:28:15;12.70;99.90
23081;DHT22;11708;50.570;8.532;2023-04-01T14:34:00;12.70;99.90
23081;DHT22;11708;50.570;8.532;2023-04-01T14:36:53;12.60;99.90
23081;DHT22;11708;50.570;8.532;2023-04-01T14:52:38;12.20;99.90
23081;DHT22;11708;50.570;8.532;2023-04-01T14:55:54;12.10;99.90
23081;DHT22;11708;50.570;8.532;2023-04-01T14:58:13;12.10;99.90
23081;DHT22;11708;50.570;8.532;2023-04-01T15:03:26;12.10;99.90
23081;DHT22;11708;50.570;8.532;2023-04-01T15:17:16;11.80;99.90
23081;DHT22;11708;50.570;8.532;2023-04-01T15:31:54;12.20;99.90
23081;DHT22;11708;50.570;8.532;2023-04-01T15:35:18;12.30;99.90
23081;DHT22;11708;50.570;8.532;2023-04-01T15:53:50;12.20;99.90
23081;DHT22;11708;50.570;8.532;2023-04-01T15:56:51;12.10;99.90
23081;DHT22;11708;50.570;8.532;2023-04-01T16:02:18;11.90;99.90
23081;DHT22;11708;50.570;8.532;2023-04-01T16:07:53;11.70;99.90
23081;DHT22;11708;50.570;8.532;2023-04-01T16:15:47;11.50;99.90
23081;DHT22;11708;50.570;8.532;2023-04-01T16:20:55;11.50;99.90
23081;DHT22;11708;50.570;8.532;2023-04-01T16:23:40;11.50;99.90
23081;DHT22;11708;50.570;8.532;2023-04-01T16:32:22;12.20;99.90
23081;DHT22;11708;50.570;8.532;2023-04-01T16:37:07;12.70;99.90
23081;DHT22;11708;50.570;8.532;2023-04-01T16:42:40;12.70;99.90
23081;DHT22;11708;50.570;8.532;2023-04-01T16:45:29;12.50;99.90
23081;DHT22;11708;50.570;8.532;2023-04-01T16:48:15;12.40;99.90
23081;DHT22;11708;50.570;8.532;2023-04-01T16:50:55;12.30;99.90
23081;DHT22;11708;50.570;8.532;2023-04-01T16:53:42;12.10;99.90
23081;DHT22;11708;50.570;8.532;2023-04-01T16:56:24;12.10;99.90
23081;DHT22;11708;50.570;8.532;2023-04-01T17:01:55;11.90;99.90
23081;DHT22;11708;50.570;8.532;2023-04-01T17:04:47;11.80;99.90
23081;DHT22;11708;50.570;8.532;2023-04-01T17:10:06;11.60;99.90
23081;DHT22;11708;50.570;8.532;2023-04-01T17:15:27;11.60;99.90
23081;DHT22;11708;50.570;8.532;2023-04-01T17:18:16;11.50;99.90
23081;DHT22;11708;50.570;8.532;2023-04-01T17:23:36;11.50;99.90
23081;DHT22;11708;50.570;8.532;2023-04-01T17:26:37;11.50;99.90
23081;DHT22;11708;50.570;8.532;2023-04-01T17:38:06;11.40;99.90
23081;DHT22;11708;50.570;8.532;2023-04-01T17:41:16;11.40;99.90
23081;DHT22;11708;50.570;8.532;2023-04-01T17:43:58;11.40;99.90
23081;DHT22;11708;50.570;8.532;2023-04-01T17:51:54;11.30;99.90
23081;DHT22;11708;50.570;8.532;2023-04-01T17:57:46;11.30;99.90
23081;DHT22;11708;50.570;8.532;2023-04-01T18:00:29;11.30;99.90
23081;DHT22;11708;50.570;8.532;2023-04-01T18:03:30;11.30;99.90
23081;DHT22;11708;50.570;8.532;2023-04-01T18:06:17;11.20;99.90
23081;DHT22;11708;50.570;8.532;2023-04-01T18:08:58;11.20;99.90
23081;DHT22;11708;50.570;8.532;2023-04-01T18:11:44;11.20;99.90
23081;DHT22;11708;50.570;8.532;2023-04-01T18:14:45;11.20;99.90
23081;DHT22;11708;50.570;8.532;2023-04-01T18:30:53;11.10;99.90
23081;DHT22;11708;50.570;8.532;2023-04-01T18:33:37;11.10;99.90
23081;DHT22;11708;50.570;8.532;2023-04-01T18:44:31;11.00;99.90
23081;DHT22;11708;50.570;8.532;2023-04-01T18:50:07;11.00;99.90
23081;DHT22;11708;50.570;8.532;2023-04-01T18:52:43;10.90;99.90
23081;DHT22;11708;50.570;8.532;2023-04-01T19:01:05;10.90;99.90
23081;DHT22;11708;50.570;8.532;2023-04-01T19:03:48;10.90;99.90
23081;DHT22;11708;50.570;8.532;2023-04-01T19:06:35;10.90;99.90
23081;DHT22;11708;50.570;8.532;2023-04-01T19:09:20;10.80;99.90
23081;DHT22;11708;50.570;8.532;2023-04-01T19:23:10;10.70;99.90
23081;DHT22;11708;50.570;8.532;2023-04-01T19:28:26;10.70;99.90
23081;DHT22;11708;50.570;8.532;2023-04-01T19:36:48;10.60;99.90
23081;DHT22;11708;50.570;8.532;2023-04-01T20:01:24;10.30;99.90
23081;DHT22;11708;50.570;8.532;2023-04-01T20:03:56;10.40;99.90
23081;DHT22;11708;50.570;8.532;2023-04-01T20:06:32;10.30;99.90
23081;DHT22;11708;50.570;8.532;2023-04-01T20:11:49;10.30;99.90
23081;DHT22;11708;50.570;8.532;2023-04-01T20:14:32;10.30;99.90
23081;DHT22;11708;50.570;8.532;2023-04-01T20:27:51;10.20;99.90
23081;DHT22;11708;50.570;8.532;2023-04-01T20:30:23;10.20;99.90
23081;DHT22;11708;50.570;8.532;2023-04-01T20:36:21;10.20;99.90
23081;DHT22;11708;50.570;8.532;2023-04-01T20:50:29;10.10;99.90
23081;DHT22;11708;50.570;8.532;2023-04-01T20:53:15;10.10;99.90
23081;DHT22;11708;50.570;8.532;2023-04-01T21:01:34;10.10;99.90
23081;DHT22;11708;50.570;8.532;2023-04-01T21:06:51;9.70;99.90
23081;DHT22;11708;50.570;8.532;2023-04-01T21:09:37;10.00;99.90
23081;DHT22;11708;50.570;8.532;2023-04-01T21:12:47;10.10;99.90
23081;DHT22;11708;50.570;8.532;2023-04-01T21:20:54;10.10;99.90
23081;DHT22;11708;50.570;8.532;2023-04-01T21:26:39;10.10;99.90
23081;DHT22;11708;50.570;8.532;2023-04-01T21:29:34;10.00;99.90
23081;DHT22;11708;50.570;8.532;2023-04-01T21:32:24;10.00;99.90
23081;DHT22;11708;50.570;8.532;2023-04-01T21:35:39;10.00;99.90
23081;DHT22;11708;50.570;8.532;2023-04-01T22:06:11;9.90;99.90
23081;DHT22;11708;50.570;8.532;2023-04-01T22:11:31;9.90;99.90
23081;DHT22;11708;50.570;8.532;2023-04-01T22:19:35;9.90;99.90
23081;DHT22;11708;50.570;8.532;2023-04-01T22:25:25;9.90;99.90
23081;DHT22;11708;50.570;8.532;2023-04-01T22:28:00;9.90;99.90
23081;DHT22;11708;50.570;8.532;2023-04-01T22:31:05;9.90;99.90
23081;DHT22;11708;50.570;8.532;2023-04-01T22:41:36;9.80;99.90
23081;DHT22;11708;50.570;8.532;2023-04-01T22:44:03;9.80;99.90
23081;DHT22;11708;50.570;8.532;2023-04-01T22:49:31;9.80;99.90
23081;DHT22;11708;50.570;8.532;2023-04-01T22:52:19;9.80;99.90
23081;DHT22;11708;50.570;8.532;2023-04-01T22:54:56;9.70;99.90
23081;DHT22;11708;50.570;8.532;2023-04-01T22:57:55;9.70;99.90
23081;DHT22;11708;50.570;8.532;2023-04-01T23:00:42;9.70;99.90
23081;DHT22;11708;50.570;8.532;2023-04-01T23:03:30;9.70;99.90
23081;DHT22;11708;50.570;8.532;2023-04-01T23:05:59;9.70;99.90
23081;DHT22;11708;50.570;8.532;2023-04-01T23:09:05;9.60;99.90
23081;DHT22;11708;50.570;8.532;2023-04-01T23:11:44;9.60;99.90
23081;DHT22;11708;50.570;8.532;2023-04-01T23:22:51;9.60;99.90
23081;DHT22;11708;50.570;8.532;2023-04-01T23:25:40;9.60;99.90
23081;DHT22;11708;50.570;8.532;2023-04-01T23:33:20;9.60;99.90
23081;DHT22;11708;50.570;8.532;2023-04-01T23:36:10;9.60;99.90
23081;DHT22;11708;50.570;8.532;2023-04-01T23:38:39;9.50;99.90
23081;DHT22;11708;50.570;8.532;2023-04-01T23:44:07;9.50;99.90
23081;DHT22;11708;50.570;8.532;2023-04-01T23:46:34;9.50;99.90
23081;DHT22;11708;50.570;8.532;2023-04-01T23:49:02;9.50;99.90
23081;DHT22;11708;50.570;8.532;2023-04-01T23:51:36;9.50;99.90
23081;DHT22;11708;50.570;8.532;2023-04-01T23:54:10;9.50;99.90
23081;DHT22;11708;50.570;8.532;2023-04-01T23:56:46;9.70;99.90
23081;DHT22;11708;50.570;8.532;2023-04-01T23:59:17;9.50;99.90
